sensor_id;sensor_type;location;lat;lon;timestamp;pressure;altitude;pressure_sealevel;temperature;humidity
61359;BME280;47228;46.762;23.598;2024-03-06T00:00:03;96878.73;;;8.83;59.24
61359;BME280;47228;46.762;23.598;2024-03-06T00:02:32;96876.41;;;8.83;59.35
61359;BME280;47228;46.762;23.598;2024-03-06T00:05:00;96877.23;;;8.83;59.44
61359;BME280;47228;46.762;23.598;2024-03-06T00:07:29;96876.90;;;8.82;59.23
61359;BME280;47228;46.762;23.598;2024-03-06T00:09:57;96876.70;;;8.81;59.25
61359;BME280;47228;46.762;23.598;2024-03-06T00:12:26;96875.16;;;8.78;59.10
61359;BME280;47228;46.762;23.598;2024-03-06T00:14:54;96874.74;;;8.73;59.25
61359;BME280;47228;46.762;23.598;2024-03-06T00:17:22;96874.21;;;8.68;59.04
61359;BME280;47228;46.762;23.598;2024-03-06T00:19:50;96872.54;;;8.63;59.24
61359;BME280;47228;46.762;23.598;2024-03-06T00:22:19;96875.30;;;8.58;59.21
61359;BME280;47228;46.762;23.598;2024-03-06T00:24:51;96878.91;;;8.53;59.58
61359;BME280;47228;46.762;23.598;2024-03-06T00:27:19;96879.71;;;8.49;59.66
61359;BME280;47228;46.762;23.598;2024-03-06T00:29:48;96876.08;;;8.46;59.79
61359;BME280;47228;46.762;23.598;2024-03-06T00:32:16;96872.23;;;8.42;59.81
61359;BME280;47228;46.762;23.598;2024-03-06T00:34:44;96871.34;;;8.37;59.95
61359;BME280;47228;46.762;23.598;2024-03-06T00:37:13;96872.77;;;8.33;59.74
61359;BME280;47228;46.762;23.598;2024-03-06T00:39:41;96873.47;;;8.29;59.99
61359;BME280;47228;46.762;23.598;2024-03-06T00:42:09;96875.70;;;8.26;60.04
61359;BME280;47228;46.762;23.598;2024-03-06T00:44:37;96875.83;;;8.21;59.91
61359;BME280;47228;46.762;23.598;2024-03-06T00:47:06;96875.11;;;8.15;60.02
61359;BME280;47228;46.762;23.598;2024-03-06T00:49:34;96876.27;;;8.09;60.23
61359;BME280;47228;46.762;23.598;2024-03-06T00:52:02;96871.78;;;8.03;60.48
61359;BME280;47228;46.762;23.598;2024-03-06T00:54:32;96871.73;;;7.97;60.34
61359;BME280;47228;46.762;23.598;2024-03-06T00:57:00;96872.19;;;7.91;60.52
61359;BME280;47228;46.762;23.598;2024-03-06T00:59:29;96871.52;;;7.85;60.84
61359;BME280;47228;46.762;23.598;2024-03-06T01:01:57;96876.51;;;7.81;60.93
61359;BME280;47228;46.762;23.598;2024-03-06T01:04:26;96878.43;;;7.75;60.96
61359;BME280;47228;46.762;23.598;2024-03-06T01:06:54;96877.96;;;7.69;61.30
61359;BME280;47228;46.762;23.598;2024-03-06T01:09:22;96877.81;;;7.62;61.46
61359;BME280;47228;46.762;23.598;2024-03-06T01:11:51;96875.09;;;7.54;61.70
61359;BME280;47228;46.762;23.598;2024-03-06T01:14:19;96877.77;;;7.47;61.85
61359;BME280;47228;46.762;23.598;2024-03-06T01:16:47;96872.21;;;7.42;62.26
61359;BME280;47228;46.762;23.598;2024-03-06T01:19:15;96874.20;;;7.39;62.16
61359;BME280;47228;46.762;23.598;2024-03-06T01:21:43;96875.02;;;7.35;62.38
61359;BME280;47228;46.762;23.598;2024-03-06T01:24:11;96871.58;;;7.31;62.57
61359;BME280;47228;46.762;23.598;2024-03-06T01:26:40;96871.05;;;7.29;62.71
61359;BME280;47228;46.762;23.598;2024-03-06T01:29:08;96871.84;;;7.25;62.90
61359;BME280;47228;46.762;23.598;2024-03-06T01:31:37;96871.98;;;7.21;62.90
61359;BME280;47228;46.762;23.598;2024-03-06T01:34:05;96867.73;;;7.18;63.05
61359;BME280;47228;46.762;23.598;2024-03-06T01:36:33;96872.52;;;7.17;62.95
61359;BME280;47228;46.762;23.598;2024-03-06T01:39:01;96873.67;;;7.15;62.96
61359;BME280;47228;46.762;23.598;2024-03-06T01:41:30;96873.88;;;7.13;62.97
61359;BME280;47228;46.762;23.598;2024-03-06T01:43:58;96875.98;;;7.11;63.20
61359;BME280;47228;46.762;23.598;2024-03-06T01:46:26;96875.93;;;7.10;63.24
61359;BME280;47228;46.762;23.598;2024-03-06T01:48:55;96884.09;;;7.10;63.20
61359;BME280;47228;46.762;23.598;2024-03-06T01:51:23;96886.61;;;7.09;63.37
61359;BME280;47228;46.762;23.598;2024-03-06T01:53:51;96890.47;;;7.09;63.40
61359;BME280;47228;46.762;23.598;2024-03-06T01:56:20;96891.91;;;7.11;63.33
61359;BME280;47228;46.762;23.598;2024-03-06T01:58:48;96893.16;;;7.10;63.30
61359;BME280;47228;46.762;23.598;2024-03-06T02:01:17;96895.87;;;7.10;63.32
61359;BME280;47228;46.762;23.598;2024-03-06T02:03:45;96897.65;;;7.08;63.17
61359;BME280;47228;46.762;23.598;2024-03-06T02:06:14;96896.66;;;7.06;63.25
61359;BME280;47228;46.762;23.598;2024-03-06T02:08:47;96899.91;;;7.04;63.25
61359;BME280;47228;46.762;23.598;2024-03-06T02:11:15;96905.40;;;7.01;63.23
61359;BME280;47228;46.762;23.598;2024-03-06T02:13:44;96910.11;;;6.96;63.19
61359;BME280;47228;46.762;23.598;2024-03-06T02:16:13;96910.44;;;6.86;63.25
61359;BME280;47228;46.762;23.598;2024-03-06T02:18:53;96907.14;;;6.75;63.46
61359;BME280;47228;46.762;23.598;2024-03-06T02:21:23;96905.35;;;6.66;63.73
61359;BME280;47228;46.762;23.598;2024-03-06T02:23:51;96909.47;;;6.59;63.94
61359;BME280;47228;46.762;23.598;2024-03-06T02:26:21;96911.05;;;6.52;64.12
61359;BME280;47228;46.762;23.598;2024-03-06T02:28:54;96910.41;;;6.43;64.08
61359;BME280;47228;46.762;23.598;2024-03-06T02:31:22;96905.13;;;6.34;64.50
61359;BME280;47228;46.762;23.598;2024-03-06T02:33:51;96904.36;;;6.30;64.95
61359;BME280;47228;46.762;23.598;2024-03-06T02:36:19;96907.27;;;6.29;65.30
61359;BME280;47228;46.762;23.598;2024-03-06T02:38:47;96903.56;;;6.28;65.21
61359;BME280;47228;46.762;23.598;2024-03-06T02:41:16;96909.80;;;6.27;65.23
61359;BME280;47228;46.762;23.598;2024-03-06T02:43:45;96911.45;;;6.28;65.61
61359;BME280;47228;46.762;23.598;2024-03-06T02:46:14;96915.69;;;6.31;65.67
61359;BME280;47228;46.762;23.598;2024-03-06T02:48:42;96922.39;;;6.35;65.60
61359;BME280;47228;46.762;23.598;2024-03-06T02:51:10;96927.66;;;6.40;65.72
61359;BME280;47228;46.762;23.598;2024-03-06T02:53:38;96929.28;;;6.42;65.54
61359;BME280;47228;46.762;23.598;2024-03-06T02:56:06;96929.74;;;6.40;65.16
61359;BME280;47228;46.762;23.598;2024-03-06T02:58:35;96929.70;;;6.37;65.36
61359;BME280;47228;46.762;23.598;2024-03-06T03:01:03;96932.27;;;6.38;65.61
61359;BME280;47228;46.762;23.598;2024-03-06T03:03:31;96941.20;;;6.40;65.60
61359;BME280;47228;46.762;23.598;2024-03-06T03:06:00;96944.65;;;6.42;65.63
61359;BME280;47228;46.762;23.598;2024-03-06T03:08:29;96946.69;;;6.42;65.51
61359;BME280;47228;46.762;23.598;2024-03-06T03:10:57;96946.29;;;6.38;65.24
61359;BME280;47228;46.762;23.598;2024-03-06T03:13:25;96948.04;;;6.36;65.36
61359;BME280;47228;46.762;23.598;2024-03-06T03:15:53;96950.64;;;6.33;65.29
61359;BME280;47228;46.762;23.598;2024-03-06T03:18:21;96947.58;;;6.26;65.15
61359;BME280;47228;46.762;23.598;2024-03-06T03:20:49;96949.13;;;6.19;65.15
61359;BME280;47228;46.762;23.598;2024-03-06T03:23:18;96951.06;;;6.13;65.29
61359;BME280;47228;46.762;23.598;2024-03-06T03:25:50;96954.40;;;6.07;65.57
61359;BME280;47228;46.762;23.598;2024-03-06T03:28:18;96953.47;;;6.03;65.86
61359;BME280;47228;46.762;23.598;2024-03-06T03:30:46;96954.91;;;6.01;66.07
61359;BME280;47228;46.762;23.598;2024-03-06T03:33:15;96955.48;;;5.97;65.95
61359;BME280;47228;46.762;23.598;2024-03-06T03:35:43;96956.46;;;5.92;65.87
61359;BME280;47228;46.762;23.598;2024-03-06T03:38:11;96957.23;;;5.86;66.06
61359;BME280;47228;46.762;23.598;2024-03-06T03:40:39;96954.85;;;5.80;66.24
61359;BME280;47228;46.762;23.598;2024-03-06T03:43:07;96956.15;;;5.77;66.50
61359;BME280;47228;46.762;23.598;2024-03-06T03:45:36;96959.35;;;5.73;66.50
61359;BME280;47228;46.762;23.598;2024-03-06T03:48:05;96959.06;;;5.70;66.38
61359;BME280;47228;46.762;23.598;2024-03-06T03:50:33;96959.50;;;5.66;66.55
61359;BME280;47228;46.762;23.598;2024-03-06T03:53:01;96963.71;;;5.63;66.76
61359;BME280;47228;46.762;23.598;2024-03-06T03:55:30;96966.35;;;5.60;66.86
61359;BME280;47228;46.762;23.598;2024-03-06T03:57:58;96964.37;;;5.58;66.89
61359;BME280;47228;46.762;23.598;2024-03-06T04:00:26;96967.77;;;5.54;66.97
61359;BME280;47228;46.762;23.598;2024-03-06T04:02:54;96966.35;;;5.49;66.92
61359;BME280;47228;46.762;23.598;2024-03-06T04:05:23;96965.55;;;5.44;67.14
61359;BME280;47228;46.762;23.598;2024-03-06T04:07:51;96966.77;;;5.41;67.59
61359;BME280;47228;46.762;23.598;2024-03-06T04:10:19;96972.79;;;5.41;67.72
61359;BME280;47228;46.762;23.598;2024-03-06T04:12:47;96972.02;;;5.38;67.98
61359;BME280;47228;46.762;23.598;2024-03-06T04:15:15;96969.82;;;5.36;68.21
61359;BME280;47228;46.762;23.598;2024-03-06T04:17:44;96970.77;;;5.36;68.32
61359;BME280;47228;46.762;23.598;2024-03-06T04:20:12;96974.73;;;5.35;68.43
61359;BME280;47228;46.762;23.598;2024-03-06T04:22:41;96979.34;;;5.37;68.60
61359;BME280;47228;46.762;23.598;2024-03-06T04:25:09;96981.88;;;5.41;68.85
61359;BME280;47228;46.762;23.598;2024-03-06T04:27:37;96984.45;;;5.46;68.78
61359;BME280;47228;46.762;23.598;2024-03-06T04:30:06;96985.48;;;5.48;68.62
61359;BME280;47228;46.762;23.598;2024-03-06T04:32:34;96987.11;;;5.49;68.55
61359;BME280;47228;46.762;23.598;2024-03-06T04:35:03;96987.50;;;5.52;69.09
61359;BME280;47228;46.762;23.598;2024-03-06T04:37:33;96989.23;;;5.53;68.97
61359;BME280;47228;46.762;23.598;2024-03-06T04:40:03;96990.68;;;5.56;68.73
61359;BME280;47228;46.762;23.598;2024-03-06T04:42:35;96992.02;;;5.59;68.84
61359;BME280;47228;46.762;23.598;2024-03-06T04:45:11;96994.87;;;5.60;68.83
61359;BME280;47228;46.762;23.598;2024-03-06T04:47:43;96993.99;;;5.61;68.84
61359;BME280;47228;46.762;23.598;2024-03-06T04:50:12;96993.79;;;5.63;68.84
61359;BME280;47228;46.762;23.598;2024-03-06T04:52:43;96994.39;;;5.65;68.78
61359;BME280;47228;46.762;23.598;2024-03-06T04:55:13;96990.47;;;5.66;68.46
61359;BME280;47228;46.762;23.598;2024-03-06T04:57:43;96990.77;;;5.65;68.30
61359;BME280;47228;46.762;23.598;2024-03-06T05:00:12;96991.23;;;5.62;68.37
61359;BME280;47228;46.762;23.598;2024-03-06T05:02:41;96991.85;;;5.63;68.49
61359;BME280;47228;46.762;23.598;2024-03-06T05:05:28;96992.40;;;5.63;68.48
61359;BME280;47228;46.762;23.598;2024-03-06T05:08:14;96993.68;;;5.61;68.52
61359;BME280;47228;46.762;23.598;2024-03-06T05:11:00;96993.15;;;5.61;68.79
61359;BME280;47228;46.762;23.598;2024-03-06T05:13:47;96996.36;;;5.62;68.71
61359;BME280;47228;46.762;23.598;2024-03-06T05:16:32;97000.96;;;5.63;68.74
61359;BME280;47228;46.762;23.598;2024-03-06T05:19:17;97001.14;;;5.66;68.74
61359;BME280;47228;46.762;23.598;2024-03-06T05:22:03;96999.63;;;5.68;68.64
61359;BME280;47228;46.762;23.598;2024-03-06T05:24:48;96999.61;;;5.70;68.68
61359;BME280;47228;46.762;23.598;2024-03-06T05:27:34;96998.98;;;5.71;68.51
61359;BME280;47228;46.762;23.598;2024-03-06T05:30:20;97003.16;;;5.73;68.72
61359;BME280;47228;46.762;23.598;2024-03-06T05:33:05;97005.42;;;5.75;68.63
61359;BME280;47228;46.762;23.598;2024-03-06T05:35:51;97005.89;;;5.74;68.59
61359;BME280;47228;46.762;23.598;2024-03-06T05:38:36;97006.55;;;5.71;68.48
61359;BME280;47228;46.762;23.598;2024-03-06T05:41:21;97008.33;;;5.68;68.57
61359;BME280;47228;46.762;23.598;2024-03-06T05:44:07;97007.55;;;5.64;68.76
61359;BME280;47228;46.762;23.598;2024-03-06T05:46:53;97012.33;;;5.66;68.97
61359;BME280;47228;46.762;23.598;2024-03-06T05:49:38;97015.95;;;5.73;69.49
61359;BME280;47228;46.762;23.598;2024-03-06T05:52:23;97018.54;;;5.81;69.41
61359;BME280;47228;46.762;23.598;2024-03-06T05:55:09;97020.77;;;5.88;69.13
61359;BME280;47228;46.762;23.598;2024-03-06T05:57:55;97022.30;;;5.92;69.12
61359;BME280;47228;46.762;23.598;2024-03-06T06:00:36;97022.77;;;5.98;68.84
61359;BME280;47228;46.762;23.598;2024-03-06T06:03:04;97018.64;;;6.03;69.06
61359;BME280;47228;46.762;23.598;2024-03-06T06:05:32;97019.19;;;6.07;68.88
61359;BME280;47228;46.762;23.598;2024-03-06T06:08:01;97020.30;;;6.12;68.79
61359;BME280;47228;46.762;23.598;2024-03-06T06:10:29;97020.35;;;6.15;68.55
61359;BME280;47228;46.762;23.598;2024-03-06T06:12:57;97020.98;;;6.19;68.54
61359;BME280;47228;46.762;23.598;2024-03-06T06:15:25;97025.57;;;6.24;68.39
61359;BME280;47228;46.762;23.598;2024-03-06T06:17:53;97025.75;;;6.28;68.33
61359;BME280;47228;46.762;23.598;2024-03-06T06:20:22;97027.44;;;6.33;68.41
61359;BME280;47228;46.762;23.598;2024-03-06T06:22:51;97029.92;;;6.38;68.33
61359;BME280;47228;46.762;23.598;2024-03-06T06:25:19;97031.55;;;6.42;68.04
61359;BME280;47228;46.762;23.598;2024-03-06T06:27:47;97030.30;;;6.45;67.86
61359;BME280;47228;46.762;23.598;2024-03-06T06:30:17;97026.83;;;6.47;67.80
61359;BME280;47228;46.762;23.598;2024-03-06T06:32:45;97018.73;;;6.49;67.67
61359;BME280;47228;46.762;23.598;2024-03-06T06:35:13;97024.25;;;6.48;67.40
61359;BME280;47228;46.762;23.598;2024-03-06T06:37:42;97023.30;;;6.47;67.36
61359;BME280;47228;46.762;23.598;2024-03-06T06:40:10;97025.61;;;6.47;67.44
61359;BME280;47228;46.762;23.598;2024-03-06T06:42:45;97026.27;;;6.50;67.37
61359;BME280;47228;46.762;23.598;2024-03-06T06:45:20;97021.83;;;6.51;67.22
61359;BME280;47228;46.762;23.598;2024-03-06T06:47:51;97026.61;;;6.50;67.43
61359;BME280;47228;46.762;23.598;2024-03-06T06:50:19;97027.86;;;6.56;67.85
61359;BME280;47228;46.762;23.598;2024-03-06T06:52:51;97032.69;;;6.63;67.91
61359;BME280;47228;46.762;23.598;2024-03-06T06:55:20;97029.36;;;6.70;67.80
61359;BME280;47228;46.762;23.598;2024-03-06T06:57:51;97033.13;;;6.77;67.59
61359;BME280;47228;46.762;23.598;2024-03-06T07:00:19;97032.33;;;6.82;67.34
61359;BME280;47228;46.762;23.598;2024-03-06T07:02:49;97028.89;;;6.84;67.08
61359;BME280;47228;46.762;23.598;2024-03-06T07:05:18;97032.55;;;6.88;67.01
61359;BME280;47228;46.762;23.598;2024-03-06T07:07:46;97031.86;;;6.93;67.14
61359;BME280;47228;46.762;23.598;2024-03-06T07:10:18;97034.02;;;7.01;66.99
61359;BME280;47228;46.762;23.598;2024-03-06T07:12:47;97034.73;;;7.08;67.06
61359;BME280;47228;46.762;23.598;2024-03-06T07:15:15;97036.52;;;7.15;66.90
61359;BME280;47228;46.762;23.598;2024-03-06T07:17:43;97037.61;;;7.21;66.56
61359;BME280;47228;46.762;23.598;2024-03-06T07:20:11;97036.23;;;7.30;66.63
61359;BME280;47228;46.762;23.598;2024-03-06T07:22:40;97041.06;;;7.40;66.75
61359;BME280;47228;46.762;23.598;2024-03-06T07:25:08;97039.72;;;7.50;66.63
61359;BME280;47228;46.762;23.598;2024-03-06T07:27:37;97042.08;;;7.60;66.25
61359;BME280;47228;46.762;23.598;2024-03-06T07:30:06;97041.38;;;7.66;65.88
61359;BME280;47228;46.762;23.598;2024-03-06T07:32:36;97041.65;;;7.68;65.60
61359;BME280;47228;46.762;23.598;2024-03-06T07:35:05;97041.65;;;7.75;65.98
61359;BME280;47228;46.762;23.598;2024-03-06T07:37:34;97046.11;;;7.84;65.99
61359;BME280;47228;46.762;23.598;2024-03-06T07:40:02;97049.45;;;7.92;65.66
61359;BME280;47228;46.762;23.598;2024-03-06T07:42:33;97047.79;;;7.99;65.66
61359;BME280;47228;46.762;23.598;2024-03-06T07:45:01;97049.46;;;8.08;65.62
61359;BME280;47228;46.762;23.598;2024-03-06T07:47:29;97050.82;;;8.16;65.20
61359;BME280;47228;46.762;23.598;2024-03-06T07:49:57;97053.10;;;8.19;64.46
61359;BME280;47228;46.762;23.598;2024-03-06T07:52:26;97055.02;;;8.22;64.60
61359;BME280;47228;46.762;23.598;2024-03-06T07:54:53;97053.47;;;8.27;64.49
61359;BME280;47228;46.762;23.598;2024-03-06T07:57:20;97054.60;;;8.31;64.19
61359;BME280;47228;46.762;23.598;2024-03-06T07:59:48;97052.36;;;8.33;63.86
61359;BME280;47228;46.762;23.598;2024-03-06T08:02:16;97050.58;;;8.32;63.86
61359;BME280;47228;46.762;23.598;2024-03-06T08:04:44;97051.28;;;8.29;64.12
61359;BME280;47228;46.762;23.598;2024-03-06T08:07:11;97052.31;;;8.30;63.95
61359;BME280;47228;46.762;23.598;2024-03-06T08:09:38;97052.34;;;8.28;63.83
61359;BME280;47228;46.762;23.598;2024-03-06T08:12:05;97055.88;;;8.28;63.90
61359;BME280;47228;46.762;23.598;2024-03-06T08:14:33;97054.27;;;8.30;64.16
61359;BME280;47228;46.762;23.598;2024-03-06T08:17:00;97053.29;;;8.30;64.13
61359;BME280;47228;46.762;23.598;2024-03-06T08:19:29;97053.00;;;8.30;64.18
61359;BME280;47228;46.762;23.598;2024-03-06T08:21:56;97053.08;;;8.31;64.23
61359;BME280;47228;46.762;23.598;2024-03-06T08:24:24;97050.98;;;8.33;64.95
61359;BME280;47228;46.762;23.598;2024-03-06T08:26:51;97053.44;;;8.37;65.03
61359;BME280;47228;46.762;23.598;2024-03-06T08:29:22;97053.46;;;8.43;65.14
61359;BME280;47228;46.762;23.598;2024-03-06T08:31:49;97053.05;;;8.49;64.97
61359;BME280;47228;46.762;23.598;2024-03-06T08:34:16;97055.70;;;8.55;64.82
61359;BME280;47228;46.762;23.598;2024-03-06T08:36:44;97057.36;;;8.62;65.04
61359;BME280;47228;46.762;23.598;2024-03-06T08:39:11;97061.30;;;8.70;64.90
61359;BME280;47228;46.762;23.598;2024-03-06T08:41:42;97064.05;;;8.77;64.82
61359;BME280;47228;46.762;23.598;2024-03-06T08:44:09;97065.25;;;8.81;64.62
61359;BME280;47228;46.762;23.598;2024-03-06T08:46:36;97064.64;;;8.83;64.66
61359;BME280;47228;46.762;23.598;2024-03-06T08:49:03;97060.73;;;8.87;64.81
61359;BME280;47228;46.762;23.598;2024-03-06T08:51:35;97061.94;;;8.93;64.71
61359;BME280;47228;46.762;23.598;2024-03-06T08:54:02;97062.27;;;8.98;64.78
61359;BME280;47228;46.762;23.598;2024-03-06T08:56:29;97061.19;;;9.03;64.83
61359;BME280;47228;46.762;23.598;2024-03-06T08:58:57;97060.35;;;9.08;64.60
61359;BME280;47228;46.762;23.598;2024-03-06T09:01:24;97056.96;;;9.10;64.26
61359;BME280;47228;46.762;23.598;2024-03-06T09:03:52;97057.38;;;9.11;64.24
61359;BME280;47228;46.762;23.598;2024-03-06T09:06:19;97058.48;;;9.12;64.60
61359;BME280;47228;46.762;23.598;2024-03-06T09:08:46;97057.14;;;9.16;64.64
61359;BME280;47228;46.762;23.598;2024-03-06T09:11:15;97057.23;;;9.24;64.67
61359;BME280;47228;46.762;23.598;2024-03-06T09:13:43;97053.58;;;9.30;64.40
61359;BME280;47228;46.762;23.598;2024-03-06T09:16:10;97053.91;;;9.37;64.38
61359;BME280;47228;46.762;23.598;2024-03-06T09:18:37;97053.66;;;9.43;64.28
61359;BME280;47228;46.762;23.598;2024-03-06T09:21:04;97051.86;;;9.51;64.23
61359;BME280;47228;46.762;23.598;2024-03-06T09:23:32;97046.94;;;9.56;63.91
61359;BME280;47228;46.762;23.598;2024-03-06T09:26:00;97048.48;;;9.61;63.29
61359;BME280;47228;46.762;23.598;2024-03-06T09:28:27;97052.95;;;9.67;62.65
61359;BME280;47228;46.762;23.598;2024-03-06T09:30:55;97053.45;;;9.73;62.42
61359;BME280;47228;46.762;23.598;2024-03-06T09:33:22;97056.88;;;9.78;62.33
61359;BME280;47228;46.762;23.598;2024-03-06T09:35:50;97057.16;;;9.81;62.13
61359;BME280;47228;46.762;23.598;2024-03-06T09:38:17;97054.80;;;9.83;61.51
61359;BME280;47228;46.762;23.598;2024-03-06T09:40:46;97054.38;;;9.85;61.64
61359;BME280;47228;46.762;23.598;2024-03-06T09:43:13;97055.27;;;9.89;61.62
61359;BME280;47228;46.762;23.598;2024-03-06T09:45:40;97053.88;;;9.93;61.24
61359;BME280;47228;46.762;23.598;2024-03-06T09:48:09;97052.56;;;9.96;61.12
61359;BME280;47228;46.762;23.598;2024-03-06T09:50:37;97053.09;;;10.00;60.72
61359;BME280;47228;46.762;23.598;2024-03-06T09:53:09;97050.55;;;10.03;60.62
61359;BME280;47228;46.762;23.598;2024-03-06T09:55:38;97052.87;;;10.07;60.54
61359;BME280;47228;46.762;23.598;2024-03-06T09:58:09;97057.48;;;10.11;60.23
61359;BME280;47228;46.762;23.598;2024-03-06T10:00:36;97057.08;;;10.10;59.76
61359;BME280;47228;46.762;23.598;2024-03-06T10:03:04;97057.16;;;10.10;59.67
61359;BME280;47228;46.762;23.598;2024-03-06T10:05:35;97054.51;;;10.10;59.50
61359;BME280;47228;46.762;23.598;2024-03-06T10:08:04;97056.66;;;10.11;59.46
61359;BME280;47228;46.762;23.598;2024-03-06T10:10:32;97056.17;;;10.13;59.44
61359;BME280;47228;46.762;23.598;2024-03-06T10:12:59;97054.98;;;10.18;59.35
61359;BME280;47228;46.762;23.598;2024-03-06T10:15:28;97054.20;;;10.21;59.42
61359;BME280;47228;46.762;23.598;2024-03-06T10:18:12;97050.92;;;10.25;59.13
61359;BME280;47228;46.762;23.598;2024-03-06T10:20:41;97052.30;;;10.28;58.92
61359;BME280;47228;46.762;23.598;2024-03-06T10:23:12;97050.81;;;10.31;58.59
61359;BME280;47228;46.762;23.598;2024-03-06T10:25:39;97046.67;;;10.34;58.51
61359;BME280;47228;46.762;23.598;2024-03-06T10:28:11;97046.39;;;10.36;58.60
61359;BME280;47228;46.762;23.598;2024-03-06T10:30:40;97043.27;;;10.37;58.15
61359;BME280;47228;46.762;23.598;2024-03-06T10:33:14;97042.76;;;10.37;58.07
61359;BME280;47228;46.762;23.598;2024-03-06T10:35:43;97038.58;;;10.39;58.13
61359;BME280;47228;46.762;23.598;2024-03-06T10:38:12;97037.79;;;10.43;58.13
61359;BME280;47228;46.762;23.598;2024-03-06T10:40:41;97037.70;;;10.48;58.21
61359;BME280;47228;46.762;23.598;2024-03-06T10:43:09;97035.89;;;10.55;58.16
61359;BME280;47228;46.762;23.598;2024-03-06T10:45:51;97035.62;;;10.62;57.87
61359;BME280;47228;46.762;23.598;2024-03-06T10:48:18;97035.27;;;10.67;57.87
61359;BME280;47228;46.762;23.598;2024-03-06T10:50:48;97035.68;;;10.74;57.97
61359;BME280;47228;46.762;23.598;2024-03-06T10:53:17;97032.06;;;10.78;57.57
61359;BME280;47228;46.762;23.598;2024-03-06T10:55:50;97032.21;;;10.81;57.54
61359;BME280;47228;46.762;23.598;2024-03-06T10:58:18;97032.89;;;10.83;57.45
61359;BME280;47228;46.762;23.598;2024-03-06T11:00:48;97033.05;;;10.86;57.33
61359;BME280;47228;46.762;23.598;2024-03-06T11:03:15;97031.92;;;10.88;57.11
61359;BME280;47228;46.762;23.598;2024-03-06T11:05:44;97030.42;;;10.87;57.01
61359;BME280;47228;46.762;23.598;2024-03-06T11:08:15;97029.54;;;10.86;57.02
61359;BME280;47228;46.762;23.598;2024-03-06T11:10:44;97035.41;;;10.87;57.20
61359;BME280;47228;46.762;23.598;2024-03-06T11:13:23;97034.19;;;10.84;56.94
61359;BME280;47228;46.762;23.598;2024-03-06T11:15:53;97035.80;;;10.82;57.25
61359;BME280;47228;46.762;23.598;2024-03-06T11:23:31;97038.15;;;10.79;57.70
61359;BME280;47228;46.762;23.598;2024-03-06T11:26:08;97040.23;;;10.78;57.73
61359;BME280;47228;46.762;23.598;2024-03-06T11:28:38;97038.28;;;10.77;58.19
61359;BME280;47228;46.762;23.598;2024-03-06T11:31:09;97040.48;;;10.76;58.25
61359;BME280;47228;46.762;23.598;2024-03-06T11:33:46;97035.67;;;10.75;58.30
61359;BME280;47228;46.762;23.598;2024-03-06T11:36:25;97031.21;;;10.70;57.88
61359;BME280;47228;46.762;23.598;2024-03-06T11:39:06;97029.84;;;10.63;57.71
61359;BME280;47228;46.762;23.598;2024-03-06T11:44:18;97028.49;;;10.55;57.99
61359;BME280;47228;46.762;23.598;2024-03-06T11:49:23;97023.85;;;10.54;58.35
61359;BME280;47228;46.762;23.598;2024-03-06T11:51:57;97026.41;;;10.56;58.22
61359;BME280;47228;46.762;23.598;2024-03-06T11:54:26;97028.57;;;10.58;58.52
61359;BME280;47228;46.762;23.598;2024-03-06T11:56:56;97026.85;;;10.59;58.21
61359;BME280;47228;46.762;23.598;2024-03-06T11:59:24;97025.95;;;10.59;58.22
61359;BME280;47228;46.762;23.598;2024-03-06T12:01:53;97025.38;;;10.59;58.28
61359;BME280;47228;46.762;23.598;2024-03-06T12:04:21;97023.13;;;10.59;58.14
61359;BME280;47228;46.762;23.598;2024-03-06T12:06:49;97024.19;;;10.58;57.97
61359;BME280;47228;46.762;23.598;2024-03-06T12:09:16;97022.11;;;10.56;57.98
61359;BME280;47228;46.762;23.598;2024-03-06T12:11:44;97022.73;;;10.55;57.85
61359;BME280;47228;46.762;23.598;2024-03-06T12:14:18;97020.20;;;10.54;58.05
61359;BME280;47228;46.762;23.598;2024-03-06T12:16:59;97018.90;;;10.54;58.59
61359;BME280;47228;46.762;23.598;2024-03-06T12:19:27;97021.15;;;10.52;58.44
61359;BME280;47228;46.762;23.598;2024-03-06T12:21:55;97021.86;;;10.49;58.62
61359;BME280;47228;46.762;23.598;2024-03-06T12:24:28;97022.31;;;10.46;58.81
61359;BME280;47228;46.762;23.598;2024-03-06T12:27:03;97021.37;;;10.43;59.07
61359;BME280;47228;46.762;23.598;2024-03-06T12:29:32;97024.97;;;10.39;59.77
61359;BME280;47228;46.762;23.598;2024-03-06T12:32:00;97027.32;;;10.34;60.68
61359;BME280;47228;46.762;23.598;2024-03-06T12:34:28;97030.60;;;10.30;61.42
61359;BME280;47228;46.762;23.598;2024-03-06T12:37:08;97039.98;;;10.26;62.24
61359;BME280;47228;46.762;23.598;2024-03-06T12:39:35;97042.67;;;10.20;63.13
61359;BME280;47228;46.762;23.598;2024-03-06T12:42:07;97044.45;;;10.13;63.75
61359;BME280;47228;46.762;23.598;2024-03-06T12:44:35;97044.23;;;10.03;64.65
61359;BME280;47228;46.762;23.598;2024-03-06T12:47:02;97049.89;;;9.91;65.31
61359;BME280;47228;46.762;23.598;2024-03-06T12:49:30;97049.65;;;9.77;66.25
61359;BME280;47228;46.762;23.598;2024-03-06T12:51:57;97050.52;;;9.59;67.29
61359;BME280;47228;46.762;23.598;2024-03-06T12:54:28;97052.48;;;9.44;68.16
61359;BME280;47228;46.762;23.598;2024-03-06T12:56:55;97052.02;;;9.29;68.91
61359;BME280;47228;46.762;23.598;2024-03-06T12:59:23;97047.11;;;9.18;69.73
61359;BME280;47228;46.762;23.598;2024-03-06T13:01:51;97047.27;;;9.10;70.52
61359;BME280;47228;46.762;23.598;2024-03-06T13:04:18;97050.45;;;8.93;70.96
61359;BME280;47228;46.762;23.598;2024-03-06T13:06:45;97050.37;;;8.76;71.66
61359;BME280;47228;46.762;23.598;2024-03-06T13:09:12;97046.35;;;8.60;72.36
61359;BME280;47228;46.762;23.598;2024-03-06T13:11:41;97047.24;;;8.44;73.12
61359;BME280;47228;46.762;23.598;2024-03-06T13:14:09;97048.91;;;8.34;73.96
61359;BME280;47228;46.762;23.598;2024-03-06T13:16:39;97046.48;;;8.27;74.56
61359;BME280;47228;46.762;23.598;2024-03-06T13:19:07;97041.19;;;8.18;75.20
61359;BME280;47228;46.762;23.598;2024-03-06T13:21:35;97040.91;;;8.15;75.83